createdAt,value
2023-05-10T00:00:00.535Z,10.9
2023-05-10T00:10:00.538Z,10.8
2023-05-10T00:20:00.560Z,10.6
2023-05-10T00:30:00.536Z,10.5
2023-05-10T00:40:00.539Z,10.3
2023-05-10T00:50:00.538Z,10.1
2023-05-10T01:00:00.517Z,9.9
2023-05-10T01:10:00.523Z,9.9
2023-05-10T01:20:00.560Z,10.0
2023-05-10T01:30:14.009Z,9.8
2023-05-10T01:40:00.521Z,9.5
2023-05-10T01:50:00.503Z,9.0
2023-05-10T02:00:00.519Z,9.2
2023-05-10T02:10:00.527Z,9.5
2023-05-10T02:20:00.502Z,9.4
2023-05-10T02:30:00.528Z,9.4
2023-05-10T02:40:00.520Z,9.4
2023-05-10T02:50:00.517Z,9.6
2023-05-10T03:00:00.553Z,9.7
2023-05-10T03:10:00.530Z,9.9
2023-05-10T03:20:00.505Z,10.0
2023-05-10T03:30:00.529Z,10.1
2023-05-10T03:40:00.504Z,10.3
2023-05-10T03:50:00.581Z,10.2
2023-05-10T04:00:00.548Z,10.2
2023-05-10T04:10:00.631Z,10.4
2023-05-10T04:20:00.627Z,10.5
2023-05-10T04:30:00.510Z,10.4
2023-05-10T04:40:00.506Z,10.5
2023-05-10T04:50:00.541Z,10.6
2023-05-10T05:00:00.507Z,10.8
2023-05-10T05:10:00.542Z,11.5
2023-05-10T05:20:00.496Z,12.6
2023-05-10T05:30:00.503Z,13.2
2023-05-10T05:40:00.492Z,14.2
2023-05-10T05:50:00.511Z,15.5
2023-05-10T06:00:00.566Z,16.0
2023-05-10T06:10:00.512Z,15.9
2023-05-10T06:20:00.548Z,16.1
2023-05-10T06:30:11.821Z,16.1
2023-05-10T06:40:00.529Z,16.8
2023-05-10T06:50:00.533Z,17.2
2023-05-10T07:00:00.537Z,17.0
2023-05-10T07:10:00.537Z,18.3
2023-05-10T07:20:00.538Z,18.3
2023-05-10T07:30:00.594Z,18.0
2023-05-10T07:40:00.530Z,17.7
2023-05-10T07:50:00.525Z,16.5
2023-05-10T08:00:00.581Z,16.6
2023-05-10T08:10:00.546Z,17.9
2023-05-10T08:20:00.614Z,17.8
2023-05-10T08:30:00.541Z,18.0
2023-05-10T08:40:00.553Z,16.9
2023-05-10T08:50:00.541Z,18.0
2023-05-10T09:00:00.511Z,18.2
2023-05-10T09:10:00.534Z,21.0
2023-05-10T09:20:00.510Z,18.7
2023-05-10T09:30:00.547Z,17.9
2023-05-10T09:40:00.515Z,17.8
2023-05-10T09:50:00.523Z,17.4
2023-05-10T10:00:00.510Z,19.1
2023-05-10T10:10:00.507Z,18.9
2023-05-10T10:20:00.573Z,19.5
2023-05-10T10:30:00.527Z,20.5
2023-05-10T10:40:00.546Z,21.1
2023-05-10T10:50:00.515Z,23.0
2023-05-10T11:00:00.494Z,23.5
2023-05-10T11:10:00.502Z,24.7
2023-05-10T11:20:00.499Z,23.7
2023-05-10T11:30:00.507Z,22.7
2023-05-10T11:40:00.541Z,21.8
2023-05-10T11:50:00.508Z,19.6
2023-05-10T12:00:00.541Z,19.4
2023-05-10T12:10:00.511Z,19.1
2023-05-10T12:20:00.515Z,20.8
2023-05-10T12:30:00.553Z,20.0
2023-05-10T12:40:00.562Z,19.0
2023-05-10T12:50:00.557Z,19.3
2023-05-10T13:00:00.701Z,19.0
2023-05-10T13:10:00.499Z,19.5
2023-05-10T13:20:00.540Z,19.5
2023-05-10T13:30:00.564Z,20.1
2023-05-10T13:40:00.521Z,20.4
2023-05-10T13:50:00.545Z,20.0
2023-05-10T14:00:05.254Z,20.1
2023-05-10T14:10:00.506Z,19.5
2023-05-10T14:20:00.520Z,20.2
2023-05-10T14:30:00.558Z,20.2
2023-05-10T14:40:00.564Z,21.6
2023-05-10T14:50:00.548Z,21.5
2023-05-10T15:00:00.602Z,19.5
2023-05-10T15:10:00.499Z,18.9
2023-05-10T15:20:00.516Z,18.8
2023-05-10T15:30:00.529Z,19.0
2023-05-10T15:40:00.536Z,19.7
2023-05-10T15:50:00.510Z,20.4
2023-05-10T16:00:00.580Z,19.6
2023-05-10T16:10:00.556Z,19.8
2023-05-10T16:20:00.553Z,19.3
2023-05-10T16:30:00.564Z,19.0
2023-05-10T16:40:00.680Z,18.4
2023-05-10T16:50:00.605Z,17.8
2023-05-10T17:00:00.871Z,17.2
2023-05-10T17:10:00.612Z,17.0
2023-05-10T17:20:00.550Z,16.7
2023-05-10T17:30:00.579Z,16.4
2023-05-10T17:50:00.685Z,15.4
2023-05-10T18:20:00.682Z,14.2
2023-05-10T18:40:00.465Z,13.5
2023-05-10T18:50:00.735Z,13.2
2023-05-10T19:00:00.559Z,13.1
2023-05-10T19:10:00.436Z,12.9
2023-05-10T19:20:00.459Z,12.8
2023-05-10T19:30:00.445Z,12.7
2023-05-10T19:40:00.494Z,12.6
2023-05-10T19:50:00.483Z,12.6
2023-05-10T20:00:00.444Z,12.5
2023-05-10T20:10:00.458Z,12.4
2023-05-10T20:20:00.489Z,12.4
2023-05-10T20:30:00.442Z,12.4
2023-05-10T20:40:00.492Z,12.5
2023-05-10T20:50:00.428Z,12.6
2023-05-10T21:00:00.465Z,12.7
2023-05-10T21:10:00.460Z,12.8
2023-05-10T21:20:00.442Z,12.8
2023-05-10T21:30:00.432Z,13.0
2023-05-10T21:40:00.462Z,13.1
2023-05-10T21:50:00.544Z,13.1
2023-05-10T22:00:00.538Z,13.1
2023-05-10T22:10:00.430Z,13.1
2023-05-10T22:20:00.432Z,13.1
2023-05-10T22:30:00.467Z,13.2
2023-05-10T22:40:00.476Z,13.2
2023-05-10T22:50:00.448Z,13.3
2023-05-10T23:00:00.457Z,13.3
2023-05-10T23:10:00.459Z,13.2
2023-05-10T23:20:00.456Z,13.2
2023-05-10T23:30:00.452Z,13.2
2023-05-10T23:40:00.456Z,13.0
2023-05-10T23:50:00.455Z,12.4
